Garrano — CSLL — position and weather

sailwx.info

Track history (hours):
 
Tides and Currents Weather Stations Pressure Air Temp Water Temp Dewpoint Dewpoint Depression Visibility Wind Speed Wind Dir Waves Ship Positions

Garrano

Last reported at 2018-May-30 13:37 UTC. Time now 2018-Jul-20 10:53 UTC.
Position N 38°47' W 009°05'.
Warning: this ship's position is 50 days out of date.

Length 61 m; draft 3.5 m.

MMSI: 263671350.

Date/timePositionNaut miles runAvg speedWind from/ knotsBaromVisibWave heightAir tempDewpointWater temp
2018-May-30 13:37N 38°47' W 009°05'1 7.3
2018-May-30 13:28N 38°46' W 009°05'1 1.5
2018-May-30 12:59N 38°45' W 009°05'0 0.0
2018-May-30 12:30N 38°45' W 009°05'0 0.0
2018-May-30 11:56N 38°45' W 009°05'0 0.0
2018-May-30 11:19N 38°45' W 009°05'0 0.0
2018-May-30 11:00N 38°45' W 009°05'0 0.0
2018-May-30 10:16N 38°45' W 009°05'0 0.0
2018-May-30 09:59N 38°45' W 009°05'0 0.0
2018-May-30 09:29N 38°45' W 009°05'0 0.0
2018-May-30 09:00N 38°45' W 009°05'0 0.0
2018-May-30 08:27N 38°45' W 009°05'0 0.0
2018-May-30 07:58N 38°45' W 009°05'0 0.0
2018-May-30 07:30N 38°45' W 009°05'0 0.0
2018-May-30 06:27N 38°45' W 009°05'0 0.0
2018-May-30 06:00N 38°45' W 009°05'0 0.0
2018-May-30 05:28N 38°45' W 009°05'0 0.0
2018-May-30 05:00N 38°45' W 009°05'0 0.0
2018-May-30 04:30N 38°45' W 009°05'0 0.0
2018-May-30 03:59N 38°45' W 009°05'0 0.0
2018-May-30 03:11N 38°45' W 009°05'0 0.0
2018-May-30 03:00N 38°45' W 009°05'0 0.0
2018-May-30 02:30N 38°45' W 009°05'0 0.0
2018-May-30 02:00N 38°45' W 009°05'0 0.0
2018-May-30 01:30N 38°45' W 009°05'0 0.0
2018-May-30 00:54N 38°45' W 009°05'0 0.0
2018-May-30 00:30N 38°45' W 009°05'0 0.0
2018-May-30 00:00N 38°45' W 009°05'0 0.0
2018-May-29 23:30N 38°45' W 009°05'0 0.0
2018-May-29 23:00N 38°45' W 009°05'0 0.0
2018-May-29 22:26N 38°45' W 009°05'0 0.0
2018-May-29 21:38N 38°45' W 009°05'0 0.0
2018-May-29 21:30N 38°45' W 009°05'0 0.9
2018-May-29 21:00N 38°45' W 009°05'3 6.1
2018-May-29 20:30N 38°42' W 009°07'3 6.0
2018-May-29 19:58N 38°42' W 009°12'2 4.8
2018-May-29 19:30N 38°41' W 009°14'2 4.3
2018-May-29 19:00N 38°41' W 009°17'2 4.2
2018-May-29 18:30N 38°40' W 009°19'3 5.5
2018-May-29 18:00N 38°38' W 009°22'4 7.3
2018-May-29 17:30N 38°37' W 009°26'4 7.7
2018-May-29 17:00N 38°38' W 009°31'4 7.6
2018-May-29 16:30N 38°38' W 009°36'4 7.2
2018-May-29 16:00N 38°39' W 009°41'3 6.2
2018-May-29 15:31N 38°42' W 009°43'4 7.5
2018-May-29 15:00N 38°45' W 009°43'4 7.6
2018-May-29 14:31N 38°49' W 009°43'4 7.2
2018-May-29 14:00N 38°53' W 009°43'4 7.3
2018-May-29 13:30N 38°56' W 009°43'3 7.1
2018-May-29 13:00N 38°60' W 009°43'4 7.1
2018-May-29 12:30N 39°04' W 009°43'4 7.1
2018-May-29 12:00N 39°07' W 009°44'4 7.3
2018-May-29 11:30N 39°11' W 009°43'4 7.2
2018-May-29 11:00N 39°14' W 009°43'4 7.2
2018-May-29 10:30N 39°18' W 009°44'4 6.9
2018-May-29 09:59N 39°21' W 009°44'113 6.7
2018-May-28 17:01N 41°06' W 008°45'0 8.0
2018-May-28 17:00N 41°06' W 008°45'4 7.5
2018-May-28 16:30N 41°09' W 008°43'2 4.7
2018-May-28 16:00N 41°11' W 008°42'0 0.0
2018-May-28 15:30N 41°11' W 008°42'0 0.0
2018-May-28 15:00N 41°11' W 008°42'0 0.0
2018-May-28 14:30N 41°11' W 008°42'0 0.0
2018-May-28 14:00N 41°11' W 008°42'0 0.0
2018-May-28 13:30N 41°11' W 008°42'0 0.0
2018-May-28 13:00N 41°11' W 008°42'0 0.0
2018-May-28 12:30N 41°11' W 008°42'0 0.0
2018-May-28 12:00N 41°11' W 008°42'0 0.0
2018-May-28 11:30N 41°11' W 008°42'0 0.0
2018-May-28 11:00N 41°11' W 008°42'0 0.0
2018-May-28 10:30N 41°11' W 008°42'0 0.0
2018-May-28 10:00N 41°11' W 008°42'0 0.0
2018-May-28 00:47N 41°11' W 008°42'0 0.0
2018-May-28 00:30N 41°11' W 008°42'0 0.0
2018-May-28 00:00N 41°11' W 008°42'0 0.0
2018-May-27 23:30N 41°11' W 008°42'0 0.0
2018-May-27 23:00N 41°11' W 008°42'0 0.0
2018-May-27 22:30N 41°11' W 008°42'0 0.0
2018-May-27 21:58N 41°11' W 008°42'0 0.0
2018-May-27 21:31N 41°11' W 008°42'0 0.0
2018-May-27 21:00N 41°11' W 008°42'0 0.0
2018-May-27 20:30N 41°11' W 008°42'0 0.0
2018-May-27 20:00N 41°11' W 008°42'0 0.0
2018-May-27 19:30N 41°11' W 008°42'0 0.0
2018-May-27 19:00N 41°11' W 008°42'0 0.0
2018-May-27 18:29N 41°11' W 008°42'0 0.0
2018-May-27 18:00N 41°11' W 008°42'0 0.0
2018-May-27 17:29N 41°11' W 008°42'0 0.0
2018-May-27 17:00N 41°11' W 008°42'0 0.0
2018-May-27 16:30N 41°11' W 008°42'0 0.0
2018-May-27 16:00N 41°11' W 008°42'0 0.0
2018-May-27 15:31N 41°11' W 008°42'0 0.0
2018-May-27 15:00N 41°11' W 008°42'0 0.0
2018-May-27 14:30N 41°11' W 008°42'0 0.0
2018-May-27 14:00N 41°11' W 008°42'0 0.0
2018-May-27 13:30N 41°11' W 008°42'0 0.0
2018-May-27 13:00N 41°11' W 008°42'0 0.0
2018-May-27 12:30N 41°11' W 008°42'0 0.0
2018-May-27 12:00N 41°11' W 008°42'0 0.0
2018-May-27 11:30N 41°11' W 008°42'0 0.0
2018-May-27 11:00N 41°11' W 008°42'0 0.0
2018-May-27 10:30N 41°11' W 008°42'0 0.0
2018-May-27 09:57N 41°11' W 008°42'0 0.0
2018-May-27 09:31N 41°11' W 008°42'0 0.0
2018-May-27 09:00N 41°11' W 008°42'0 0.0
2018-May-27 08:30N 41°11' W 008°42'0 0.0
2018-May-27 08:00N 41°11' W 008°42'0 0.0
2018-May-27 07:30N 41°11' W 008°42'0 0.0
2018-May-27 07:00N 41°11' W 008°42'0 0.0
2018-May-27 06:30N 41°11' W 008°42'0 0.0
2018-May-27 06:00N 41°11' W 008°42'0 0.0
2018-May-27 05:31N 41°11' W 008°42'0 0.0
2018-May-27 05:00N 41°11' W 008°42'0 0.0
2018-May-27 04:30N 41°11' W 008°42'0 0.0
2018-May-27 04:01N 41°11' W 008°42'0 0.0
2018-May-27 03:30N 41°11' W 008°42'0 0.0
2018-May-27 03:00N 41°11' W 008°42'0 0.0
2018-May-27 02:30N 41°11' W 008°42'0 0.0
2018-May-27 02:00N 41°11' W 008°42'0 0.0
2018-May-27 01:30N 41°11' W 008°42'0 0.0
2018-May-27 01:01N 41°11' W 008°42'0 0.0
2018-May-27 00:30N 41°11' W 008°42'0 0.0
2018-May-27 00:00N 41°11' W 008°42'0 0.0
2018-May-26 23:28N 41°11' W 008°42'0 0.0
2018-May-26 23:00N 41°11' W 008°42'0 0.0
2018-May-26 22:30N 41°11' W 008°42'0 0.0
2018-May-26 22:00N 41°11' W 008°42'0 0.0
2018-May-26 21:30N 41°11' W 008°42'0 0.0
2018-May-26 21:00N 41°11' W 008°42'0 0.0
2018-May-26 20:29N 41°11' W 008°42'0 0.0
2018-May-26 20:00N 41°11' W 008°42'0 0.0
2018-May-26 19:29N 41°11' W 008°42'0 0.0
2018-May-26 18:59N 41°11' W 008°42'0 0.0
2018-May-26 18:29N 41°11' W 008°42'0 0.0
2018-May-26 18:00N 41°11' W 008°42'0 0.0
2018-May-26 17:30N 41°11' W 008°42'0 0.0
2018-May-26 17:00N 41°11' W 008°42'0 0.0
2018-May-26 16:30N 41°11' W 008°42'0 0.0
2018-May-26 16:00N 41°11' W 008°42'0 0.0
2018-May-26 15:29N 41°11' W 008°42'0 0.0
2018-May-26 15:00N 41°11' W 008°42'0 0.0
2018-May-26 14:30N 41°11' W 008°42'0 0.0
2018-May-26 14:00N 41°11' W 008°42'0 0.0
2018-May-26 13:30N 41°11' W 008°42'0 0.0
2018-May-26 13:00N 41°11' W 008°42'0 0.0
2018-May-26 12:30N 41°11' W 008°42'0 0.0
2018-May-26 12:00N 41°11' W 008°42'0 0.0
2018-May-26 11:31N 41°11' W 008°42'0 0.0
2018-May-26 11:00N 41°11' W 008°42'0 0.0
2018-May-26 10:30N 41°11' W 008°42'0 0.0
2018-May-26 09:57N 41°11' W 008°42'0 0.0
2018-May-26 09:30N 41°11' W 008°42'0 0.0
2018-May-26 09:01N 41°11' W 008°42'0 0.0
2018-May-26 08:30N 41°11' W 008°42'0 0.0
2018-May-26 08:00N 41°11' W 008°42'0 0.0
2018-May-26 07:30N 41°11' W 008°42'0 0.0
2018-May-26 06:57N 41°11' W 008°42'0 0.0
2018-May-26 06:30N 41°11' W 008°42'0 0.0
2018-May-26 05:30N 41°11' W 008°42'0 0.0
2018-May-26 04:59N 41°11' W 008°42'0 0.0
2018-May-26 04:30N 41°11' W 008°42'0 0.0
2018-May-26 04:01N 41°11' W 008°42'0 0.0
2018-May-26 03:28N 41°11' W 008°42'0 0.0
2018-May-26 02:57N 41°11' W 008°42'0 0.0
2018-May-26 02:30N 41°11' W 008°42'0 0.0
2018-May-26 01:59N 41°11' W 008°42'0 0.0
2018-May-26 01:30N 41°11' W 008°42'0 0.0
2018-May-26 01:00N 41°11' W 008°42'0 0.0
2018-May-26 00:30N 41°11' W 008°42'0 0.0
2018-May-26 00:00N 41°11' W 008°42'0 0.0
2018-May-25 23:30N 41°11' W 008°42'0 0.0
2018-May-25 23:00N 41°11' W 008°42'0 0.0
2018-May-25 22:31N 41°11' W 008°42'0 0.0
2018-May-25 22:01N 41°11' W 008°42'0 0.0
2018-May-25 21:30N 41°11' W 008°42'0 0.0
2018-May-25 21:01N 41°11' W 008°42'0 0.0
2018-May-25 20:30N 41°11' W 008°42'0 0.0
2018-May-25 20:00N 41°11' W 008°42'0 0.0
2018-May-25 19:30N 41°11' W 008°42'0 0.0
2018-May-25 19:00N 41°11' W 008°42'0 0.0
2018-May-25 18:30N 41°11' W 008°42'0 0.0
2018-May-25 18:00N 41°11' W 008°42'0 0.0
2018-May-25 17:29N 41°11' W 008°42'0 0.0
2018-May-25 17:00N 41°11' W 008°42'0 0.0
2018-May-25 16:30N 41°11' W 008°42'0 0.0
2018-May-25 16:00N 41°11' W 008°42'0 0.0
2018-May-25 15:30N 41°11' W 008°42'0 0.0
2018-May-25 15:00N 41°11' W 008°42'0 0.0
2018-May-25 14:30N 41°11' W 008°42'0 0.0
2018-May-25 14:00N 41°11' W 008°42'0 0.0
2018-May-25 13:30N 41°11' W 008°42'0 0.0
2018-May-25 13:00N 41°11' W 008°42'0 0.0
2018-May-25 12:30N 41°11' W 008°42'0 0.0
2018-May-25 12:00N 41°11' W 008°42'0 0.0
2018-May-25 11:30N 41°11' W 008°42'0 0.0
2018-May-25 11:00N 41°11' W 008°42'0 0.0
2018-May-25 10:30N 41°11' W 008°42'0 0.0
2018-May-25 10:00N 41°11' W 008°42'0 0.0
2018-May-25 09:30N 41°11' W 008°42'0 0.0
2018-May-25 09:00N 41°11' W 008°42'0 0.0
2018-May-25 08:30N 41°11' W 008°42'0 0.0
2018-May-25 08:00N 41°11' W 008°42'0 0.0
2018-May-25 07:30N 41°11' W 008°42'0 0.0
2018-May-25 06:59N 41°11' W 008°42'0 0.0
2018-May-25 06:30N 41°11' W 008°42'0 0.0
2018-May-25 06:00N 41°11' W 008°42'0 0.0
2018-May-25 05:30N 41°11' W 008°42'0 0.0
2018-May-25 05:00N 41°11' W 008°42'0 0.0
2018-May-25 04:30N 41°11' W 008°42'0 0.0
2018-May-25 04:00N 41°11' W 008°42'0 0.0
2018-May-25 03:30N 41°11' W 008°42'0 0.0
2018-May-25 03:00N 41°11' W 008°42'0 0.0
2018-May-25 02:30N 41°11' W 008°42'0 0.0
2018-May-25 02:00N 41°11' W 008°42'0 0.0
2018-May-25 01:30N 41°11' W 008°42'0 0.0
2018-May-25 01:00N 41°11' W 008°42'0 0.0
2018-May-25 00:30N 41°11' W 008°42'0 0.0
2018-May-25 00:00N 41°11' W 008°42'0 0.0
2018-May-24 23:30N 41°11' W 008°42'0 0.0
2018-May-24 23:00N 41°11' W 008°42'0 0.0
2018-May-24 22:30N 41°11' W 008°42'0 0.0
2018-May-24 22:00N 41°11' W 008°42'0 0.0
2018-May-24 21:30N 41°11' W 008°42'0 0.0
2018-May-24 21:00N 41°11' W 008°42'0 0.0
2018-May-24 20:30N 41°11' W 008°42'0 0.0
2018-May-24 20:00N 41°11' W 008°42'0 0.0
2018-May-24 19:30N 41°11' W 008°42'0 0.0
2018-May-24 19:00N 41°11' W 008°42'0 0.0
2018-May-24 18:30N 41°11' W 008°42'0 0.0
2018-May-24 18:00N 41°11' W 008°42'0 0.0
2018-May-24 17:30N 41°11' W 008°42'0 0.0
2018-May-24 17:00N 41°11' W 008°42'0 0.0
2018-May-24 16:30N 41°11' W 008°42'0 0.0
2018-May-24 16:00N 41°11' W 008°42'0 0.0
2018-May-24 15:30N 41°11' W 008°42'0 0.0
2018-May-24 15:00N 41°11' W 008°42'0 0.0
2018-May-24 14:30N 41°11' W 008°42'0 0.0
2018-May-24 14:00N 41°11' W 008°42'0 0.0
2018-May-24 13:30N 41°11' W 008°42'0 0.0
2018-May-24 09:00N 41°11' W 008°42'0 0.0
2018-May-24 08:30N 41°11' W 008°42'0 0.0
2018-May-24 08:00N 41°11' W 008°42'0 0.0
2018-May-24 07:30N 41°11' W 008°42'0 0.0
2018-May-24 07:00N 41°11' W 008°42'0 0.0
2018-May-24 06:30N 41°11' W 008°42'0 0.0
2018-May-24 06:00N 41°11' W 008°42'0 0.0
2018-May-24 05:30N 41°11' W 008°42'0 0.0
2018-May-24 05:00N 41°11' W 008°42'0 0.0
2018-May-24 04:30N 41°11' W 008°42'0 0.0
2018-May-24 04:00N 41°11' W 008°42'0 0.0
2018-May-24 03:30N 41°11' W 008°42'0 0.0
2018-May-24 03:00N 41°11' W 008°42'0 0.0
2018-May-24 02:30N 41°11' W 008°42'0 0.0
2018-May-24 02:00N 41°11' W 008°42'0 0.0
2018-May-24 01:30N 41°11' W 008°42'0 0.0
2018-May-24 00:59N 41°11' W 008°42'0 0.0
2018-May-24 00:30N 41°11' W 008°42'0 0.0
2018-May-24 00:00N 41°11' W 008°42'0 0.0
2018-May-23 23:30N 41°11' W 008°42'0 0.0
2018-May-23 23:00N 41°11' W 008°42'0 0.0
2018-May-23 22:30N 41°11' W 008°42'0 0.0
2018-May-23 22:00N 41°11' W 008°42'0 0.0
2018-May-23 21:30N 41°11' W 008°42'0 0.0
2018-May-23 21:00N 41°11' W 008°42'0 0.0
2018-May-23 20:28N 41°11' W 008°42'0 0.0
2018-May-23 19:59N 41°11' W 008°42'0 0.0
2018-May-23 19:30N 41°11' W 008°42'0 0.0
2018-May-23 19:00N 41°11' W 008°42'0 0.0
2018-May-23 18:30N 41°11' W 008°42'0 0.0
2018-May-23 18:00N 41°11' W 008°42'0 0.0
2018-May-23 17:30N 41°11' W 008°42'0 0.0
2018-May-23 17:00N 41°11' W 008°42'0 0.0
2018-May-23 16:30N 41°11' W 008°42'0 0.0
2018-May-23 16:00N 41°11' W 008°42'0 0.0
2018-May-23 15:30N 41°11' W 008°42'0 0.0
2018-May-23 15:00N 41°11' W 008°42'0 0.0
2018-May-23 14:30N 41°11' W 008°42'0 0.0
2018-May-23 14:00N 41°11' W 008°42'0 0.0
2018-May-23 13:30N 41°11' W 008°42'0 0.0
2018-May-23 13:00N 41°11' W 008°42'0 0.0
2018-May-23 12:29N 41°11' W 008°42'0 0.0
2018-May-23 12:00N 41°11' W 008°42'0 0.0
2018-May-23 11:30N 41°11' W 008°42'0 0.0
2018-May-23 11:00N 41°11' W 008°42'0 0.0
2018-May-23 10:30N 41°11' W 008°42'0 0.0
2018-May-23 10:00N 41°11' W 008°42'0 0.0
2018-May-23 09:30N 41°11' W 008°42'0 0.0
2018-May-23 09:00N 41°11' W 008°42'0 0.0
2018-May-23 08:30N 41°11' W 008°42'0 0.0
2018-May-23 08:00N 41°11' W 008°42'0 0.0
2018-May-23 07:29N 41°11' W 008°42'0 0.0
2018-May-23 07:00N 41°11' W 008°42'0 0.0
2018-May-21 17:21N 41°11' W 008°42'0 0.0
2018-May-21 17:00N 41°11' W 008°42'0 0.0
2018-May-21 16:31N 41°11' W 008°42'0 0.0
2018-May-21 16:01N 41°11' W 008°42'0 0.0
2018-May-21 15:30N 41°11' W 008°42'0 0.0
2018-May-21 15:00N 41°11' W 008°42'0 0.0
2018-May-21 14:30N 41°11' W 008°42'0 0.0
2018-May-21 14:00N 41°11' W 008°42'0 0.0
2018-May-21 13:31N 41°11' W 008°42'0 0.0
2018-May-21 13:00N 41°11' W 008°42'0 0.0
2018-May-21 12:30N 41°11' W 008°42'0 0.0
2018-May-21 11:59N 41°11' W 008°42'0 0.0
2018-May-21 11:29N 41°11' W 008°42'0 0.0
2018-May-21 11:00N 41°11' W 008°42'0 0.0
2018-May-21 10:30N 41°11' W 008°42'0 0.0
2018-May-21 10:00N 41°11' W 008°42'0 0.0
2018-May-21 09:28N 41°11' W 008°42'0 0.0
2018-May-21 09:00N 41°11' W 008°42'0 0.0
2018-May-21 08:30N 41°11' W 008°42'0 0.0
2018-May-21 08:00N 41°11' W 008°42'0 0.0
2018-May-21 07:30N 41°11' W 008°42'0 0.0
2018-May-21 07:00N 41°11' W 008°42'0 0.0
2018-May-21 06:31N 41°11' W 008°42'0 0.0
2018-May-21 05:59N 41°11' W 008°42'0 0.0
2018-May-21 05:30N 41°11' W 008°42'0 0.0
2018-May-21 05:00N 41°11' W 008°42'0 0.0
2018-May-21 04:30N 41°11' W 008°42'0 0.0
2018-May-21 04:00N 41°11' W 008°42'0 0.0
2018-May-21 03:30N 41°11' W 008°42'0 0.0
2018-May-21 03:01N 41°11' W 008°42'0 0.0
2018-May-21 02:30N 41°11' W 008°42'0 0.0
2018-May-21 01:59N 41°11' W 008°42'0 0.0
2018-May-21 01:30N 41°11' W 008°42'0 0.0
2018-May-21 01:00N 41°11' W 008°42'0 0.0
2018-May-21 00:30N 41°11' W 008°42'0 0.0
2018-May-21 00:01N 41°11' W 008°42'0 0.0
2018-May-20 23:30N 41°11' W 008°42'0 0.0
2018-May-20 23:00N 41°11' W 008°42'0 0.0
2018-May-20 22:30N 41°11' W 008°42'0 0.0
2018-May-20 22:00N 41°11' W 008°42'0 0.0
2018-May-20 21:30N 41°11' W 008°42'0 0.0
2018-May-20 21:00N 41°11' W 008°42'0 0.0
2018-May-20 20:30N 41°11' W 008°42'0 0.0
2018-May-20 20:00N 41°11' W 008°42'0 0.0
2018-May-20 19:30N 41°11' W 008°42'0 0.0
2018-May-20 19:00N 41°11' W 008°42'0 0.0
2018-May-20 18:30N 41°11' W 008°42'0 0.0
2018-May-20 18:00N 41°11' W 008°42'0 0.0
2018-May-20 17:26N 41°11' W 008°42'0 0.0
2018-May-20 17:00N 41°11' W 008°42'0 0.0
2018-May-20 16:30N 41°11' W 008°42'0 0.0
2018-May-20 16:00N 41°11' W 008°42'0 0.0
2018-May-20 15:24N 41°11' W 008°42'0 0.0
2018-May-20 15:01N 41°11' W 008°42'0 0.0
2018-May-20 14:30N 41°11' W 008°42'0 0.0
2018-May-20 14:00N 41°11' W 008°42'  
Track history (hours):
 
Tides and Currents Weather Stations Pressure Air Temp Water Temp Dewpoint Dewpoint Depression Visibility Wind Speed Wind Dir Waves Ship Positions

Garrano

Last reported at 2018-May-30 13:37 UTC. Time now 2018-Jul-20 10:53 UTC.
Position N 38°47' W 009°05'.
Warning: this ship's position is 50 days out of date.

Length 61 m; draft 3.5 m.

MMSI: 263671350.

Date/timePositionNaut miles runAvg speedWind from/ knotsBaromVisibWave heightAir tempDewpointWater temp
2018-May-30 13:37N 38°47' W 009°05'1 7.3
2018-May-30 13:28N 38°46' W 009°05'1 1.5
2018-May-30 12:59N 38°45' W 009°05'0 0.0
2018-May-30 12:30N 38°45' W 009°05'0 0.0
2018-May-30 11:56N 38°45' W 009°05'0 0.0
2018-May-30 11:19N 38°45' W 009°05'0 0.0
2018-May-30 11:00N 38°45' W 009°05'0 0.0
2018-May-30 10:16N 38°45' W 009°05'0 0.0
2018-May-30 09:59N 38°45' W 009°05'0 0.0
2018-May-30 09:29N 38°45' W 009°05'0 0.0
2018-May-30 09:00N 38°45' W 009°05'0 0.0
2018-May-30 08:27N 38°45' W 009°05'0 0.0
2018-May-30 07:58N 38°45' W 009°05'0 0.0
2018-May-30 07:30N 38°45' W 009°05'0 0.0
2018-May-30 06:27N 38°45' W 009°05'0 0.0
2018-May-30 06:00N 38°45' W 009°05'0 0.0
2018-May-30 05:28N 38°45' W 009°05'0 0.0
2018-May-30 05:00N 38°45' W 009°05'0 0.0
2018-May-30 04:30N 38°45' W 009°05'0 0.0
2018-May-30 03:59N 38°45' W 009°05'0 0.0
2018-May-30 03:11N 38°45' W 009°05'0 0.0
2018-May-30 03:00N 38°45' W 009°05'0 0.0
2018-May-30 02:30N 38°45' W 009°05'0 0.0
2018-May-30 02:00N 38°45' W 009°05'0 0.0
2018-May-30 01:30N 38°45' W 009°05'0 0.0
2018-May-30 00:54N 38°45' W 009°05'0 0.0
2018-May-30 00:30N 38°45' W 009°05'0 0.0
2018-May-30 00:00N 38°45' W 009°05'0 0.0
2018-May-29 23:30N 38°45' W 009°05'0 0.0
2018-May-29 23:00N 38°45' W 009°05'0 0.0
2018-May-29 22:26N 38°45' W 009°05'0 0.0
2018-May-29 21:38N 38°45' W 009°05'0 0.0
2018-May-29 21:30N 38°45' W 009°05'0 0.9
2018-May-29 21:00N 38°45' W 009°05'3 6.1
2018-May-29 20:30N 38°42' W 009°07'3 6.0
2018-May-29 19:58N 38°42' W 009°12'2 4.8
2018-May-29 19:30N 38°41' W 009°14'2 4.3
2018-May-29 19:00N 38°41' W 009°17'2 4.2
2018-May-29 18:30N 38°40' W 009°19'3 5.5
2018-May-29 18:00N 38°38' W 009°22'4 7.3
2018-May-29 17:30N 38°37' W 009°26'4 7.7
2018-May-29 17:00N 38°38' W 009°31'4 7.6
2018-May-29 16:30N 38°38' W 009°36'4 7.2
2018-May-29 16:00N 38°39' W 009°41'3 6.2
2018-May-29 15:31N 38°42' W 009°43'4 7.5
2018-May-29 15:00N 38°45' W 009°43'4 7.6
2018-May-29 14:31N 38°49' W 009°43'4 7.2
2018-May-29 14:00N 38°53' W 009°43'4 7.3
2018-May-29 13:30N 38°56' W 009°43'3 7.1
2018-May-29 13:00N 38°60' W 009°43'4 7.1
2018-May-29 12:30N 39°04' W 009°43'4 7.1
2018-May-29 12:00N 39°07' W 009°44'4 7.3
2018-May-29 11:30N 39°11' W 009°43'4 7.2
2018-May-29 11:00N 39°14' W 009°43'4 7.2
2018-May-29 10:30N 39°18' W 009°44'4 6.9
2018-May-29 09:59N 39°21' W 009°44'113 6.7
2018-May-28 17:01N 41°06' W 008°45'0 8.0
2018-May-28 17:00N 41°06' W 008°45'4 7.5
2018-May-28 16:30N 41°09' W 008°43'2 4.7
2018-May-28 16:00N 41°11' W 008°42'0 0.0
2018-May-28 15:30N 41°11' W 008°42'0 0.0
2018-May-28 15:00N 41°11' W 008°42'0 0.0
2018-May-28 14:30N 41°11' W 008°42'0 0.0
2018-May-28 14:00N 41°11' W 008°42'0 0.0
2018-May-28 13:30N 41°11' W 008°42'0 0.0
2018-May-28 13:00N 41°11' W 008°42'0 0.0
2018-May-28 12:30N 41°11' W 008°42'0 0.0
2018-May-28 12:00N 41°11' W 008°42'0 0.0
2018-May-28 11:30N 41°11' W 008°42'0 0.0
2018-May-28 11:00N 41°11' W 008°42'0 0.0
2018-May-28 10:30N 41°11' W 008°42'0 0.0
2018-May-28 10:00N 41°11' W 008°42'0 0.0
2018-May-28 00:47N 41°11' W 008°42'0 0.0
2018-May-28 00:30N 41°11' W 008°42'0 0.0
2018-May-28 00:00N 41°11' W 008°42'0 0.0
2018-May-27 23:30N 41°11' W 008°42'0 0.0
2018-May-27 23:00N 41°11' W 008°42'0 0.0
2018-May-27 22:30N 41°11' W 008°42'0 0.0
2018-May-27 21:58N 41°11' W 008°42'0 0.0
2018-May-27 21:31N 41°11' W 008°42'0 0.0
2018-May-27 21:00N 41°11' W 008°42'0 0.0
2018-May-27 20:30N 41°11' W 008°42'0 0.0
2018-May-27 20:00N 41°11' W 008°42'0 0.0
2018-May-27 19:30N 41°11' W 008°42'0 0.0
2018-May-27 19:00N 41°11' W 008°42'0 0.0
2018-May-27 18:29N 41°11' W 008°42'0 0.0
2018-May-27 18:00N 41°11' W 008°42'0 0.0
2018-May-27 17:29N 41°11' W 008°42'0 0.0
2018-May-27 17:00N 41°11' W 008°42'0 0.0
2018-May-27 16:30N 41°11' W 008°42'0 0.0
2018-May-27 16:00N 41°11' W 008°42'0 0.0
2018-May-27 15:31N 41°11' W 008°42'0 0.0
2018-May-27 15:00N 41°11' W 008°42'0 0.0
2018-May-27 14:30N 41°11' W 008°42'0 0.0
2018-May-27 14:00N 41°11' W 008°42'0 0.0
2018-May-27 13:30N 41°11' W 008°42'0 0.0
2018-May-27 13:00N 41°11' W 008°42'0 0.0
2018-May-27 12:30N 41°11' W 008°42'0 0.0
2018-May-27 12:00N 41°11' W 008°42'0 0.0
2018-May-27 11:30N 41°11' W 008°42'0 0.0
2018-May-27 11:00N 41°11' W 008°42'0 0.0
2018-May-27 10:30N 41°11' W 008°42'0 0.0
2018-May-27 09:57N 41°11' W 008°42'0 0.0
2018-May-27 09:31N 41°11' W 008°42'0 0.0
2018-May-27 09:00N 41°11' W 008°42'0 0.0
2018-May-27 08:30N 41°11' W 008°42'0 0.0
2018-May-27 08:00N 41°11' W 008°42'0 0.0
2018-May-27 07:30N 41°11' W 008°42'0 0.0
2018-May-27 07:00N 41°11' W 008°42'0 0.0
2018-May-27 06:30N 41°11' W 008°42'0 0.0
2018-May-27 06:00N 41°11' W 008°42'0 0.0
2018-May-27 05:31N 41°11' W 008°42'0 0.0
2018-May-27 05:00N 41°11' W 008°42'0 0.0
2018-May-27 04:30N 41°11' W 008°42'0 0.0
2018-May-27 04:01N 41°11' W 008°42'0 0.0
2018-May-27 03:30N 41°11' W 008°42'0 0.0
2018-May-27 03:00N 41°11' W 008°42'0 0.0
2018-May-27 02:30N 41°11' W 008°42'0 0.0
2018-May-27 02:00N 41°11' W 008°42'0 0.0
2018-May-27 01:30N 41°11' W 008°42'0 0.0
2018-May-27 01:01N 41°11' W 008°42'0 0.0
2018-May-27 00:30N 41°11' W 008°42'0 0.0
2018-May-27 00:00N 41°11' W 008°42'0 0.0
2018-May-26 23:28N 41°11' W 008°42'0 0.0
2018-May-26 23:00N 41°11' W 008°42'0 0.0
2018-May-26 22:30N 41°11' W 008°42'0 0.0
2018-May-26 22:00N 41°11' W 008°42'0 0.0
2018-May-26 21:30N 41°11' W 008°42'0 0.0
2018-May-26 21:00N 41°11' W 008°42'0 0.0
2018-May-26 20:29N 41°11' W 008°42'0 0.0
2018-May-26 20:00N 41°11' W 008°42'0 0.0
2018-May-26 19:29N 41°11' W 008°42'0 0.0
2018-May-26 18:59N 41°11' W 008°42'0 0.0
2018-May-26 18:29N 41°11' W 008°42'0 0.0
2018-May-26 18:00N 41°11' W 008°42'0 0.0
2018-May-26 17:30N 41°11' W 008°42'0 0.0
2018-May-26 17:00N 41°11' W 008°42'0 0.0
2018-May-26 16:30N 41°11' W 008°42'0 0.0
2018-May-26 16:00N 41°11' W 008°42'0 0.0
2018-May-26 15:29N 41°11' W 008°42'0 0.0
2018-May-26 15:00N 41°11' W 008°42'0 0.0
2018-May-26 14:30N 41°11' W 008°42'0 0.0
2018-May-26 14:00N 41°11' W 008°42'0 0.0
2018-May-26 13:30N 41°11' W 008°42'0 0.0
2018-May-26 13:00N 41°11' W 008°42'0 0.0
2018-May-26 12:30N 41°11' W 008°42'0 0.0
2018-May-26 12:00N 41°11' W 008°42'0 0.0
2018-May-26 11:31N 41°11' W 008°42'0 0.0
2018-May-26 11:00N 41°11' W 008°42'0 0.0
2018-May-26 10:30N 41°11' W 008°42'0 0.0
2018-May-26 09:57N 41°11' W 008°42'0 0.0
2018-May-26 09:30N 41°11' W 008°42'0 0.0
2018-May-26 09:01N 41°11' W 008°42'0 0.0
2018-May-26 08:30N 41°11' W 008°42'0 0.0
2018-May-26 08:00N 41°11' W 008°42'0 0.0
2018-May-26 07:30N 41°11' W 008°42'0 0.0
2018-May-26 06:57N 41°11' W 008°42'0 0.0
2018-May-26 06:30N 41°11' W 008°42'0 0.0
2018-May-26 05:30N 41°11' W 008°42'0 0.0
2018-May-26 04:59N 41°11' W 008°42'0 0.0
2018-May-26 04:30N 41°11' W 008°42'0 0.0
2018-May-26 04:01N 41°11' W 008°42'0 0.0
2018-May-26 03:28N 41°11' W 008°42'0 0.0
2018-May-26 02:57N 41°11' W 008°42'0 0.0
2018-May-26 02:30N 41°11' W 008°42'0 0.0
2018-May-26 01:59N 41°11' W 008°42'0 0.0
2018-May-26 01:30N 41°11' W 008°42'0 0.0
2018-May-26 01:00N 41°11' W 008°42'0 0.0
2018-May-26 00:30N 41°11' W 008°42'0 0.0
2018-May-26 00:00N 41°11' W 008°42'0 0.0
2018-May-25 23:30N 41°11' W 008°42'0 0.0
2018-May-25 23:00N 41°11' W 008°42'0 0.0
2018-May-25 22:31N 41°11' W 008°42'0 0.0
2018-May-25 22:01N 41°11' W 008°42'0 0.0
2018-May-25 21:30N 41°11' W 008°42'0 0.0
2018-May-25 21:01N 41°11' W 008°42'0 0.0
2018-May-25 20:30N 41°11' W 008°42'0 0.0
2018-May-25 20:00N 41°11' W 008°42'0 0.0
2018-May-25 19:30N 41°11' W 008°42'0 0.0
2018-May-25 19:00N 41°11' W 008°42'0 0.0
2018-May-25 18:30N 41°11' W 008°42'0 0.0
2018-May-25 18:00N 41°11' W 008°42'0 0.0
2018-May-25 17:29N 41°11' W 008°42'0 0.0
2018-May-25 17:00N 41°11' W 008°42'0 0.0
2018-May-25 16:30N 41°11' W 008°42'0 0.0
2018-May-25 16:00N 41°11' W 008°42'0 0.0
2018-May-25 15:30N 41°11' W 008°42'0 0.0
2018-May-25 15:00N 41°11' W 008°42'0 0.0
2018-May-25 14:30N 41°11' W 008°42'0 0.0
2018-May-25 14:00N 41°11' W 008°42'0 0.0
2018-May-25 13:30N 41°11' W 008°42'0 0.0
2018-May-25 13:00N 41°11' W 008°42'0 0.0
2018-May-25 12:30N 41°11' W 008°42'0 0.0
2018-May-25 12:00N 41°11' W 008°42'0 0.0
2018-May-25 11:30N 41°11' W 008°42'0 0.0
2018-May-25 11:00N 41°11' W 008°42'0 0.0
2018-May-25 10:30N 41°11' W 008°42'0 0.0
2018-May-25 10:00N 41°11' W 008°42'0 0.0
2018-May-25 09:30N 41°11' W 008°42'0 0.0
2018-May-25 09:00N 41°11' W 008°42'0 0.0
2018-May-25 08:30N 41°11' W 008°42'0 0.0
2018-May-25 08:00N 41°11' W 008°42'0 0.0
2018-May-25 07:30N 41°11' W 008°42'0 0.0
2018-May-25 06:59N 41°11' W 008°42'0 0.0
2018-May-25 06:30N 41°11' W 008°42'0 0.0
2018-May-25 06:00N 41°11' W 008°42'0 0.0
2018-May-25 05:30N 41°11' W 008°42'0 0.0
2018-May-25 05:00N 41°11' W 008°42'0 0.0
2018-May-25 04:30N 41°11' W 008°42'0 0.0
2018-May-25 04:00N 41°11' W 008°42'0 0.0
2018-May-25 03:30N 41°11' W 008°42'0 0.0
2018-May-25 03:00N 41°11' W 008°42'0 0.0
2018-May-25 02:30N 41°11' W 008°42'0 0.0
2018-May-25 02:00N 41°11' W 008°42'0 0.0
2018-May-25 01:30N 41°11' W 008°42'0 0.0
2018-May-25 01:00N 41°11' W 008°42'0 0.0
2018-May-25 00:30N 41°11' W 008°42'0 0.0
2018-May-25 00:00N 41°11' W 008°42'0 0.0
2018-May-24 23:30N 41°11' W 008°42'0 0.0
2018-May-24 23:00N 41°11' W 008°42'0 0.0
2018-May-24 22:30N 41°11' W 008°42'0 0.0
2018-May-24 22:00N 41°11' W 008°42'0 0.0
2018-May-24 21:30N 41°11' W 008°42'0 0.0
2018-May-24 21:00N 41°11' W 008°42'0 0.0
2018-May-24 20:30N 41°11' W 008°42'0 0.0
2018-May-24 20:00N 41°11' W 008°42'0 0.0
2018-May-24 19:30N 41°11' W 008°42'0 0.0
2018-May-24 19:00N 41°11' W 008°42'0 0.0
2018-May-24 18:30N 41°11' W 008°42'0 0.0
2018-May-24 18:00N 41°11' W 008°42'0 0.0
2018-May-24 17:30N 41°11' W 008°42'0 0.0
2018-May-24 17:00N 41°11' W 008°42'0 0.0
2018-May-24 16:30N 41°11' W 008°42'0 0.0
2018-May-24 16:00N 41°11' W 008°42'0 0.0
2018-May-24 15:30N 41°11' W 008°42'0 0.0
2018-May-24 15:00N 41°11' W 008°42'0 0.0
2018-May-24 14:30N 41°11' W 008°42'0 0.0
2018-May-24 14:00N 41°11' W 008°42'0 0.0
2018-May-24 13:30N 41°11' W 008°42'0 0.0
2018-May-24 09:00N 41°11' W 008°42'0 0.0
2018-May-24 08:30N 41°11' W 008°42'0 0.0
2018-May-24 08:00N 41°11' W 008°42'0 0.0
2018-May-24 07:30N 41°11' W 008°42'0 0.0
2018-May-24 07:00N 41°11' W 008°42'0 0.0
2018-May-24 06:30N 41°11' W 008°42'0 0.0
2018-May-24 06:00N 41°11' W 008°42'0 0.0
2018-May-24 05:30N 41°11' W 008°42'0 0.0
2018-May-24 05:00N 41°11' W 008°42'0 0.0
2018-May-24 04:30N 41°11' W 008°42'0 0.0
2018-May-24 04:00N 41°11' W 008°42'0 0.0
2018-May-24 03:30N 41°11' W 008°42'0 0.0
2018-May-24 03:00N 41°11' W 008°42'0 0.0
2018-May-24 02:30N 41°11' W 008°42'0 0.0
2018-May-24 02:00N 41°11' W 008°42'0 0.0
2018-May-24 01:30N 41°11' W 008°42'0 0.0
2018-May-24 00:59N 41°11' W 008°42'0 0.0
2018-May-24 00:30N 41°11' W 008°42'0 0.0
2018-May-24 00:00N 41°11' W 008°42'0 0.0
2018-May-23 23:30N 41°11' W 008°42'0 0.0
2018-May-23 23:00N 41°11' W 008°42'0 0.0
2018-May-23 22:30N 41°11' W 008°42'0 0.0
2018-May-23 22:00N 41°11' W 008°42'0 0.0
2018-May-23 21:30N 41°11' W 008°42'0 0.0
2018-May-23 21:00N 41°11' W 008°42'0 0.0
2018-May-23 20:28N 41°11' W 008°42'0 0.0
2018-May-23 19:59N 41°11' W 008°42'0 0.0
2018-May-23 19:30N 41°11' W 008°42'0 0.0
2018-May-23 19:00N 41°11' W 008°42'0 0.0
2018-May-23 18:30N 41°11' W 008°42'0 0.0
2018-May-23 18:00N 41°11' W 008°42'0 0.0
2018-May-23 17:30N 41°11' W 008°42'0 0.0
2018-May-23 17:00N 41°11' W 008°42'0 0.0
2018-May-23 16:30N 41°11' W 008°42'0 0.0
2018-May-23 16:00N 41°11' W 008°42'0 0.0
2018-May-23 15:30N 41°11' W 008°42'0 0.0
2018-May-23 15:00N 41°11' W 008°42'0 0.0
2018-May-23 14:30N 41°11' W 008°42'0 0.0
2018-May-23 14:00N 41°11' W 008°42'0 0.0
2018-May-23 13:30N 41°11' W 008°42'0 0.0
2018-May-23 13:00N 41°11' W 008°42'0 0.0
2018-May-23 12:29N 41°11' W 008°42'0 0.0
2018-May-23 12:00N 41°11' W 008°42'0 0.0
2018-May-23 11:30N 41°11' W 008°42'0 0.0
2018-May-23 11:00N 41°11' W 008°42'0 0.0
2018-May-23 10:30N 41°11' W 008°42'0 0.0
2018-May-23 10:00N 41°11' W 008°42'0 0.0
2018-May-23 09:30N 41°11' W 008°42'0 0.0
2018-May-23 09:00N 41°11' W 008°42'0 0.0
2018-May-23 08:30N 41°11' W 008°42'0 0.0
2018-May-23 08:00N 41°11' W 008°42'0 0.0
2018-May-23 07:29N 41°11' W 008°42'0 0.0
2018-May-23 07:00N 41°11' W 008°42'0 0.0
2018-May-21 17:21N 41°11' W 008°42'0 0.0
2018-May-21 17:00N 41°11' W 008°42'0 0.0
2018-May-21 16:31N 41°11' W 008°42'0 0.0
2018-May-21 16:01N 41°11' W 008°42'0 0.0
2018-May-21 15:30N 41°11' W 008°42'0 0.0
2018-May-21 15:00N 41°11' W 008°42'0 0.0
2018-May-21 14:30N 41°11' W 008°42'0 0.0
2018-May-21 14:00N 41°11' W 008°42'0 0.0
2018-May-21 13:31N 41°11' W 008°42'0 0.0
2018-May-21 13:00N 41°11' W 008°42'0 0.0
2018-May-21 12:30N 41°11' W 008°42'0 0.0
2018-May-21 11:59N 41°11' W 008°42'0 0.0
2018-May-21 11:29N 41°11' W 008°42'0 0.0
2018-May-21 11:00N 41°11' W 008°42'0 0.0
2018-May-21 10:30N 41°11' W 008°42'0 0.0
2018-May-21 10:00N 41°11' W 008°42'0 0.0
2018-May-21 09:28N 41°11' W 008°42'0 0.0
2018-May-21 09:00N 41°11' W 008°42'0 0.0
2018-May-21 08:30N 41°11' W 008°42'0 0.0
2018-May-21 08:00N 41°11' W 008°42'0 0.0
2018-May-21 07:30N 41°11' W 008°42'0 0.0
2018-May-21 07:00N 41°11' W 008°42'0 0.0
2018-May-21 06:31N 41°11' W 008°42'0 0.0
2018-May-21 05:59N 41°11' W 008°42'0 0.0
2018-May-21 05:30N 41°11' W 008°42'0 0.0
2018-May-21 05:00N 41°11' W 008°42'0 0.0
2018-May-21 04:30N 41°11' W 008°42'0 0.0
2018-May-21 04:00N 41°11' W 008°42'0 0.0
2018-May-21 03:30N 41°11' W 008°42'0 0.0
2018-May-21 03:01N 41°11' W 008°42'0 0.0
2018-May-21 02:30N 41°11' W 008°42'0 0.0
2018-May-21 01:59N 41°11' W 008°42'0 0.0
2018-May-21 01:30N 41°11' W 008°42'0 0.0
2018-May-21 01:00N 41°11' W 008°42'0 0.0
2018-May-21 00:30N 41°11' W 008°42'0 0.0
2018-May-21 00:01N 41°11' W 008°42'0 0.0
2018-May-20 23:30N 41°11' W 008°42'0 0.0
2018-May-20 23:00N 41°11' W 008°42'0 0.0
2018-May-20 22:30N 41°11' W 008°42'0 0.0
2018-May-20 22:00N 41°11' W 008°42'0 0.0
2018-May-20 21:30N 41°11' W 008°42'0 0.0
2018-May-20 21:00N 41°11' W 008°42'0 0.0
2018-May-20 20:30N 41°11' W 008°42'0 0.0
2018-May-20 20:00N 41°11' W 008°42'0 0.0
2018-May-20 19:30N 41°11' W 008°42'0 0.0
2018-May-20 19:00N 41°11' W 008°42'0 0.0
2018-May-20 18:30N 41°11' W 008°42'0 0.0
2018-May-20 18:00N 41°11' W 008°42'0 0.0
2018-May-20 17:26N 41°11' W 008°42'0 0.0
2018-May-20 17:00N 41°11' W 008°42'0 0.0
2018-May-20 16:30N 41°11' W 008°42'0 0.0
2018-May-20 16:00N 41°11' W 008°42'0 0.0
2018-May-20 15:24N 41°11' W 008°42'0 0.0
2018-May-20 15:01N 41°11' W 008°42'0 0.0
2018-May-20 14:30N 41°11' W 008°42'0 0.0
2018-May-20 14:00N 41°11' W 008°42'  

Dump ship's entire track history